Time;durP1;ratioP1;P1;durP2;ratioP2;P2;SDS_P1;SDS_P2;PMS_P1;PMS_P2;Temp;Humidity;BMP_temperature;BMP_pressure;BME280_temperature;BME280_humidity;BME280_pressure;Samples;Min_cycle;Max_cycle;Signal;HPM_P1;HPM_P2
2021/08/11 00:01:14;;;;;;;0.10;0.10;;;;;;;;;;5110280;28;20247;-69
2021/08/11 00:03:40;;;;;;;0.00;0.00;;;;;;;;;;5123866;28;20253;-67
2021/08/11 00:06:07;;;;;;;0.10;0.10;;;;;;;;;;5123909;28;20538;-67
2021/08/11 00:08:33;;;;;;;0.10;0.10;;;;;;;;;;5124148;28;20383;-67
2021/08/11 00:10:59;;;;;;;0.10;0.10;;;;;;;;;;5124026;28;20247;-68
2021/08/11 00:13:27;;;;;;;0.00;0.00;;;;;;;;;;5124280;28;20463;-67
2021/08/11 00:15:54;;;;;;;0.10;0.10;;;;;;;;;;5124034;28;20288;-68
2021/08/11 00:18:20;;;;;;;0.00;0.00;;;;;;;;;;5123375;28;20249;-66
2021/08/11 00:20:46;;;;;;;0.00;0.00;;;;;;;;;;5121032;28;20203;-68
2021/08/11 00:23:14;;;;;;;0.00;0.00;;;;;;;;;;5112414;28;20228;-67
2021/08/11 00:25:40;;;;;;;0.10;0.10;;;;;;;;;;5108497;28;20518;-68
2021/08/11 00:28:06;;;;;;;0.00;0.00;;;;;;;;;;5110106;28;20209;-67
2021/08/11 00:30:34;;;;;;;0.00;0.00;;;;;;;;;;5110496;28;20539;-67
2021/08/11 00:33:00;;;;;;;0.00;0.00;;;;;;;;;;5109030;28;20215;-67
2021/08/11 00:35:26;;;;;;;0.10;0.10;;;;;;;;;;5123693;28;20203;-70
2021/08/11 00:37:53;;;;;;;0.10;0.10;;;;;;;;;;5120239;28;20208;-68
2021/08/11 00:40:20;;;;;;;0.00;0.00;;;;;;;;;;5113169;28;20203;-67
2021/08/11 00:42:47;;;;;;;0.10;0.10;;;;;;;;;;5121698;28;20223;-67
2021/08/11 00:45:14;;;;;;;0.20;0.20;;;;;;;;;;5111035;28;20202;-67
2021/08/11 00:47:42;;;;;;;0.10;0.10;;;;;;;;;;5109139;28;20226;-67
2021/08/11 00:50:10;;;;;;;0.00;0.00;;;;;;;;;;5117019;28;20447;-67
2021/08/11 00:52:36;;;;;;;0.00;0.00;;;;;;;;;;5115960;28;20200;-67
2021/08/11 00:55:03;;;;;;;0.00;0.00;;;;;;;;;;5123522;28;20362;-67
2021/08/11 00:57:30;;;;;;;0.08;0.08;;;;;;;;;;5123188;28;20202;-67
2021/08/11 00:59:57;;;;;;;0.00;0.00;;;;;;;;;;5119910;28;20203;-67
2021/08/11 01:02:24;;;;;;;0.00;0.00;;;;;;;;;;5103003;28;20224;-67
2021/08/11 01:04:52;;;;;;;0.10;0.10;;;;;;;;;;5118844;28;20250;-67
2021/08/11 01:07:20;;;;;;;0.03;0.03;;;;;;;;;;5122995;28;20511;-67
2021/08/11 01:09:46;;;;;;;0.00;0.00;;;;;;;;;;5121635;28;20219;-67
2021/08/11 01:12:13;;;;;;;0.05;0.05;;;;;;;;;;5123254;28;20357;-67
2021/08/11 01:14:40;;;;;;;0.10;0.10;;;;;;;;;;5122921;28;20207;-67
2021/08/11 01:17:06;;;;;;;0.10;0.10;;;;;;;;;;5104082;28;20248;-66
2021/08/11 01:19:32;;;;;;;0.05;0.05;;;;;;;;;;5108840;28;20265;-66
2021/08/11 01:22:02;;;;;;;0.08;0.08;;;;;;;;;;5123374;28;20449;-67
2021/08/11 01:24:35;;;;;;;0.00;0.00;;;;;;;;;;5108462;28;20207;-67
2021/08/11 01:27:17;;;;;;;0.10;0.10;;;;;;;;;;5113246;28;20222;-67
2021/08/11 01:29:51;;;;;;;0.00;0.00;;;;;;;;;;5120665;28;20423;-67
2021/08/11 01:32:27;;;;;;;0.10;0.10;;;;;;;;;;5112095;28;20374;-66
2021/08/11 01:34:55;;;;;;;0.10;0.10;;;;;;;;;;5116708;28;20218;-66
2021/08/11 01:37:24;;;;;;;0.03;0.03;;;;;;;;;;5113565;28;20238;-66
2021/08/11 01:39:52;;;;;;;0.00;0.00;;;;;;;;;;5125240;28;20369;-66
2021/08/11 01:42:20;;;;;;;0.10;0.10;;;;;;;;;;5126726;28;20221;-67
2021/08/11 01:44:49;;;;;;;0.10;0.10;;;;;;;;;;5111510;28;20495;-66
2021/08/11 01:47:17;;;;;;;0.00;0.00;;;;;;;;;;5113737;28;20215;-66
2021/08/11 01:49:45;;;;;;;0.10;0.10;;;;;;;;;;5126583;28;20204;-67
2021/08/11 01:52:13;;;;;;;0.10;0.10;;;;;;;;;;5126390;28;20280;-67
2021/08/11 01:54:40;;;;;;;0.10;0.10;;;;;;;;;;5126553;28;20205;-67
2021/08/11 01:57:06;;;;;;;0.00;0.00;;;;;;;;;;5125987;28;20204;-67
2021/08/11 01:59:33;;;;;;;0.10;0.10;;;;;;;;;;5126465;28;20318;-66
2021/08/11 02:01:59;;;;;;;0.10;0.10;;;;;;;;;;5111972;28;20210;-67
2021/08/11 02:04:25;;;;;;;0.10;0.10;;;;;;;;;;5126297;28;20246;-67
2021/08/11 02:06:53;;;;;;;0.00;0.00;;;;;;;;;;5125844;28;20253;-66
2021/08/11 02:09:21;;;;;;;0.00;0.00;;;;;;;;;;5118657;28;20226;-67
2021/08/11 02:11:47;;;;;;;0.10;0.10;;;;;;;;;;5105328;28;20207;-67
2021/08/11 02:14:13;;;;;;;0.10;0.10;;;;;;;;;;5105788;28;20380;-66
2021/08/11 02:16:40;;;;;;;0.10;0.10;;;;;;;;;;5117327;28;20207;-67
2021/08/11 02:19:08;;;;;;;0.00;0.00;;;;;;;;;;5111217;28;20249;-66
2021/08/11 02:21:34;;;;;;;0.00;0.00;;;;;;;;;;5125898;28;20220;-67
2021/08/11 02:24:01;;;;;;;0.05;0.05;;;;;;;;;;5111525;28;20452;-67
2021/08/11 02:26:34;;;;;;;0.00;0.00;;;;;;;;;;5126169;27;20374;-67
2021/08/11 02:29:03;;;;;;;0.10;0.10;;;;;;;;;;5126247;28;20268;-67
2021/08/11 02:31:32;;;;;;;0.10;0.10;;;;;;;;;;5125819;28;20209;-67
2021/08/11 02:34:02;;;;;;;0.10;0.10;;;;;;;;;;5126114;28;20478;-67
2021/08/11 02:36:31;;;;;;;0.00;0.00;;;;;;;;;;5125562;28;20198;-67
2021/08/11 02:38:59;;;;;;;0.03;0.03;;;;;;;;;;5125699;28;20226;-67
2021/08/11 02:41:34;;;;;;;0.00;0.00;;;;;;;;;;5125984;28;20290;-66
2021/08/11 02:44:02;;;;;;;0.00;0.00;;;;;;;;;;5125191;28;20221;-67
2021/08/11 02:46:30;;;;;;;0.17;0.17;;;;;;;;;;5121345;28;20440;-67
2021/08/11 02:48:59;;;;;;;0.00;0.00;;;;;;;;;;5115374;28;20383;-68
2021/08/11 02:51:26;;;;;;;0.10;0.10;;;;;;;;;;5122405;28;20263;-67
2021/08/11 02:53:52;;;;;;;0.10;0.10;;;;;;;;;;5114012;28;20207;-67
2021/08/11 02:56:19;;;;;;;0.05;0.05;;;;;;;;;;5109788;28;20204;-67
2021/08/11 02:58:47;;;;;;;0.03;0.03;;;;;;;;;;5111763;28;20248;-68
2021/08/11 03:01:13;;;;;;;0.00;0.00;;;;;;;;;;5111703;28;20514;-67
2021/08/11 03:03:39;;;;;;;0.20;0.20;;;;;;;;;;5119036;28;20223;-66
2021/08/11 03:06:06;;;;;;;0.10;0.10;;;;;;;;;;5116443;28;20215;-67
2021/08/11 03:08:33;;;;;;;0.10;0.10;;;;;;;;;;5125025;28;20200;-67
2021/08/11 03:11:00;;;;;;;0.10;0.10;;;;;;;;;;5124794;27;20205;-67
2021/08/11 03:13:26;;;;;;;0.00;0.00;;;;;;;;;;5110479;28;20200;-66
2021/08/11 03:15:54;;;;;;;0.10;0.10;;;;;;;;;;5116185;28;20203;-67
2021/08/11 03:18:20;;;;;;;0.00;0.00;;;;;;;;;;5108277;28;20253;-67
2021/08/11 03:20:46;;;;;;;0.00;0.00;;;;;;;;;;5118405;28;20199;-67
2021/08/11 03:23:14;;;;;;;0.08;0.08;;;;;;;;;;5103817;28;20220;-67
2021/08/11 03:25:40;;;;;;;0.03;0.03;;;;;;;;;;5118535;28;20244;-67
2021/08/11 03:28:06;;;;;;;0.00;0.00;;;;;;;;;;5110537;28;20208;-66
2021/08/11 03:30:33;;;;;;;0.05;0.05;;;;;;;;;;5124191;27;20228;-67
2021/08/11 03:33:00;;;;;;;0.00;0.00;;;;;;;;;;5124331;28;20199;-66
2021/08/11 03:35:27;;;;;;;0.00;0.00;;;;;;;;;;5124596;28;20215;-67
2021/08/11 03:37:53;;;;;;;0.10;0.10;;;;;;;;;;5124900;28;20197;-67
2021/08/11 03:40:21;;;;;;;0.00;0.00;;;;;;;;;;5124312;28;20252;-67
2021/08/11 03:42:47;;;;;;;0.10;0.10;;;;;;;;;;5124277;28;20202;-66
2021/08/11 03:45:13;;;;;;;0.00;0.00;;;;;;;;;;5124157;28;20202;-66
2021/08/11 03:47:40;;;;;;;0.10;0.10;;;;;;;;;;5119043;27;20222;-67
2021/08/11 03:50:09;;;;;;;0.10;0.10;;;;;;;;;;5118180;28;20207;-67
2021/08/11 03:52:35;;;;;;;0.10;0.10;;;;;;;;;;5116146;28;20206;-67
2021/08/11 03:55:01;;;;;;;0.10;0.10;;;;;;;;;;5120116;28;20244;-67
2021/08/11 03:57:28;;;;;;;0.10;0.10;;;;;;;;;;5114549;28;20255;-67
2021/08/11 03:59:54;;;;;;;0.10;0.10;;;;;;;;;;5123926;28;20202;-65
2021/08/11 04:02:20;;;;;;;0.08;0.08;;;;;;;;;;5122906;28;20379;-67
2021/08/11 04:04:46;;;;;;;0.10;0.10;;;;;;;;;;5123752;28;20227;-67
2021/08/11 04:07:14;;;;;;;0.10;0.10;;;;;;;;;;5123673;28;20257;-67
2021/08/11 04:09:40;;;;;;;0.00;0.00;;;;;;;;;;5123691;28;20403;-67
2021/08/11 04:12:07;;;;;;;0.10;0.10;;;;;;;;;;5123658;28;20198;-67
2021/08/11 04:14:33;;;;;;;0.10;0.10;;;;;;;;;;5123967;28;20471;-66
2021/08/11 04:16:59;;;;;;;0.10;0.10;;;;;;;;;;5123901;28;20198;-68
2021/08/11 04:19:25;;;;;;;0.00;0.00;;;;;;;;;;5118432;28;20293;-68
2021/08/11 04:21:51;;;;;;;0.10;0.10;;;;;;;;;;5103397;28;20203;-68
2021/08/11 04:24:19;;;;;;;0.35;0.35;;;;;;;;;;5121269;28;20281;-67
2021/08/11 04:26:45;;;;;;;0.00;0.00;;;;;;;;;;5123741;28;20198;-67
2021/08/11 04:29:12;;;;;;;0.10;0.10;;;;;;;;;;5109710;28;20277;-69
2021/08/11 04:31:38;;;;;;;0.00;0.00;;;;;;;;;;5116382;28;20206;-69
2021/08/11 04:34:04;;;;;;;0.05;0.05;;;;;;;;;;5103796;28;20356;-67
2021/08/11 04:36:30;;;;;;;0.08;0.08;;;;;;;;;;5104391;28;20242;-66
2021/08/11 04:38:57;;;;;;;0.10;0.10;;;;;;;;;;5115374;28;20512;-67
2021/08/11 04:41:24;;;;;;;0.10;0.10;;;;;;;;;;5109773;28;20198;-67
2021/08/11 04:44:00;;;;;;;0.00;0.00;;;;;;;;;;5112865;28;20229;-68
2021/08/11 04:46:26;;;;;;;0.00;0.00;;;;;;;;;;5121119;28;20432;-68
2021/08/11 04:48:52;;;;;;;0.10;0.10;;;;;;;;;;5113520;28;20203;-66
2021/08/11 04:51:20;;;;;;;0.20;0.20;;;;;;;;;;5104972;28;20267;-67
2021/08/11 04:53:46;;;;;;;0.03;0.03;;;;;;;;;;5123388;28;20490;-67
2021/08/11 04:56:13;;;;;;;0.00;0.00;;;;;;;;;;5108915;28;20568;-67
2021/08/11 04:58:40;;;;;;;0.00;0.00;;;;;;;;;;5123768;28;20199;-66
2021/08/11 05:01:07;;;;;;;0.10;0.10;;;;;;;;;;5123488;28;20207;-67
2021/08/11 05:03:35;;;;;;;0.00;0.00;;;;;;;;;;5119095;28;20538;-67
2021/08/11 05:06:01;;;;;;;0.10;0.10;;;;;;;;;;5114013;28;20222;-67
2021/08/11 05:08:27;;;;;;;0.00;0.00;;;;;;;;;;5123601;28;20279;-67
2021/08/11 05:10:53;;;;;;;1.65;0.57;;;;;;;;;;5114648;28;20503;-67
2021/08/11 05:13:20;;;;;;;0.10;0.10;;;;;;;;;;5105040;28;20199;-67
2021/08/11 05:15:47;;;;;;;0.10;0.10;;;;;;;;;;5120295;28;20297;-68
2021/08/11 05:18:14;;;;;;;0.10;0.10;;;;;;;;;;5116490;28;20226;-67
2021/08/11 05:20:40;;;;;;;0.20;0.20;;;;;;;;;;5126991;27;20204;-67
2021/08/11 05:23:07;;;;;;;0.00;0.00;;;;;;;;;;5126875;28;20207;-67
2021/08/11 05:25:33;;;;;;;0.10;0.10;;;;;;;;;;5113686;28;20213;-68
2021/08/11 05:27:59;;;;;;;0.00;0.00;;;;;;;;;;5121287;28;20207;-67
2021/08/11 05:30:25;;;;;;;0.10;0.10;;;;;;;;;;5118876;28;20240;-67
2021/08/11 05:32:53;;;;;;;0.10;0.10;;;;;;;;;;5123052;28;20199;-67
2021/08/11 05:35:19;;;;;;;0.10;0.10;;;;;;;;;;5117181;28;20256;-66
2021/08/11 05:37:46;;;;;;;0.08;0.08;;;;;;;;;;5126664;28;20301;-67
2021/08/11 05:40:12;;;;;;;0.10;0.10;;;;;;;;;;5127265;28;20366;-67
2021/08/11 05:42:39;;;;;;;0.00;0.00;;;;;;;;;;5126923;28;20524;-69
2021/08/11 05:45:06;;;;;;;0.10;0.10;;;;;;;;;;5126704;28;20280;-68
2021/08/11 05:47:32;;;;;;;0.08;0.08;;;;;;;;;;5126892;28;20496;-67
2021/08/11 05:50:00;;;;;;;0.10;0.10;;;;;;;;;;5126393;28;20200;-68
2021/08/11 05:52:26;;;;;;;0.10;0.10;;;;;;;;;;5127034;28;20207;-67
2021/08/11 05:54:53;;;;;;;0.57;0.57;;;;;;;;;;5126550;28;20549;-67
2021/08/11 05:57:20;;;;;;;0.10;0.10;;;;;;;;;;5126625;28;20233;-67
2021/08/11 05:59:46;;;;;;;0.00;0.00;;;;;;;;;;5126415;28;20200;-67
2021/08/11 06:02:13;;;;;;;0.00;0.00;;;;;;;;;;5126685;28;20207;-66
2021/08/11 06:04:39;;;;;;;0.10;0.10;;;;;;;;;;5112866;28;20444;-69
2021/08/11 06:07:06;;;;;;;0.65;0.65;;;;;;;;;;5126094;28;20214;-67
2021/08/11 06:09:33;;;;;;;0.00;0.00;;;;;;;;;;5127032;28;20541;-67
2021/08/11 06:11:59;;;;;;;0.00;0.00;;;;;;;;;;5126388;27;20257;-67
2021/08/11 06:14:26;;;;;;;0.10;0.10;;;;;;;;;;5126667;28;20224;-67
2021/08/11 06:16:52;;;;;;;0.00;0.00;;;;;;;;;;5126162;28;20204;-67
2021/08/11 06:21:58;;;;;;;0.00;0.00;;;;;;;;;;5104616;28;20208;-67
2021/08/11 06:24:26;;;;;;;0.00;0.00;;;;;;;;;;5114330;28;20227;-67
2021/08/11 06:26:52;;;;;;;0.10;0.10;;;;;;;;;;5125807;28;20204;-67
2021/08/11 06:29:18;;;;;;;0.10;0.10;;;;;;;;;;5113837;28;20202;-67
2021/08/11 06:31:45;;;;;;;0.00;0.00;;;;;;;;;;5119946;28;20197;-68
2021/08/11 06:34:11;;;;;;;0.00;0.00;;;;;;;;;;5110691;28;20201;-67
2021/08/11 06:36:37;;;;;;;0.10;0.10;;;;;;;;;;5120032;28;20468;-68
2021/08/11 06:39:04;;;;;;;0.10;0.10;;;;;;;;;;5118290;28;20199;-67
2021/08/11 06:41:31;;;;;;;0.10;0.10;;;;;;;;;;5115425;28;20204;-67
2021/08/11 06:43:57;;;;;;;0.10;0.10;;;;;;;;;;5104893;28;20225;-67
2021/08/11 06:46:24;;;;;;;0.03;0.03;;;;;;;;;;5117706;28;20200;-67
2021/08/11 06:48:50;;;;;;;0.10;0.10;;;;;;;;;;5106720;28;20204;-68
2021/08/11 06:51:16;;;;;;;0.03;0.03;;;;;;;;;;5114201;28;20224;-67
2021/08/11 06:53:42;;;;;;;0.10;0.10;;;;;;;;;;5112943;28;20199;-67
2021/08/11 06:56:09;;;;;;;0.00;0.00;;;;;;;;;;5116895;28;20397;-68
2021/08/11 06:58:37;;;;;;;0.10;0.10;;;;;;;;;;5119187;28;20538;-68
2021/08/11 07:01:03;;;;;;;0.10;0.10;;;;;;;;;;5105204;28;20246;-67
2021/08/11 07:03:29;;;;;;;0.28;0.28;;;;;;;;;;5108741;28;20432;-66
2021/08/11 07:05:55;;;;;;;0.00;0.00;;;;;;;;;;5115237;28;20320;-67
2021/08/11 07:08:22;;;;;;;0.05;0.05;;;;;;;;;;5113861;28;20200;-68
2021/08/11 07:10:49;;;;;;;0.00;0.00;;;;;;;;;;5113004;28;20201;-68
2021/08/11 07:13:16;;;;;;;0.00;0.00;;;;;;;;;;5110214;28;20233;-68
2021/08/11 07:15:44;;;;;;;0.10;0.10;;;;;;;;;;5104148;28;20299;-69
2021/08/11 07:18:12;;;;;;;0.10;0.10;;;;;;;;;;5115732;28;20294;-68
2021/08/11 07:20:38;;;;;;;0.25;0.25;;;;;;;;;;5109937;28;20243;-68
2021/08/11 07:23:04;;;;;;;0.00;0.00;;;;;;;;;;5120734;28;20205;-68
2021/08/11 07:25:31;;;;;;;0.00;0.00;;;;;;;;;;5120513;28;20402;-68
2021/08/11 07:27:57;;;;;;;0.00;0.00;;;;;;;;;;5113398;28;20272;-67
2021/08/11 07:30:23;;;;;;;0.00;0.00;;;;;;;;;;5106882;28;20198;-68
2021/08/11 07:32:51;;;;;;;1.55;1.55;;;;;;;;;;5107679;28;20232;-67
2021/08/11 07:35:18;;;;;;;0.20;0.20;;;;;;;;;;5118136;28;20387;-68
2021/08/11 07:37:45;;;;;;;0.00;0.00;;;;;;;;;;5104732;28;20210;-68
2021/08/11 07:40:13;;;;;;;0.00;0.00;;;;;;;;;;5110491;28;20207;-68
2021/08/11 07:42:39;;;;;;;0.00;0.00;;;;;;;;;;5103796;28;20240;-68
2021/08/11 07:45:06;;;;;;;0.08;0.08;;;;;;;;;;5108802;28;20222;-67
2021/08/11 07:47:32;;;;;;;0.00;0.00;;;;;;;;;;5111934;28;20219;-68
2021/08/11 07:49:59;;;;;;;0.00;0.00;;;;;;;;;;5109305;28;20203;-69
2021/08/11 07:52:26;;;;;;;0.00;0.00;;;;;;;;;;5113436;28;20494;-68
2021/08/11 07:54:52;;;;;;;0.00;0.00;;;;;;;;;;5110490;28;20237;-67
2021/08/11 07:57:18;;;;;;;0.00;0.00;;;;;;;;;;5109051;28;20199;-67
2021/08/11 07:59:44;;;;;;;0.00;0.00;;;;;;;;;;5108112;28;20206;-67
2021/08/11 08:02:11;;;;;;;2.25;1.58;;;;;;;;;;5103594;28;20444;-68
2021/08/11 08:04:37;;;;;;;0.00;0.00;;;;;;;;;;5106197;28;20285;-67
2021/08/11 08:07:05;;;;;;;0.10;0.10;;;;;;;;;;5123470;28;20222;-64
2021/08/11 08:09:31;;;;;;;0.08;0.08;;;;;;;;;;5112102;28;20272;-71
2021/08/11 08:11:57;;;;;;;0.28;0.28;;;;;;;;;;5122183;28;20271;-68
2021/08/11 08:14:24;;;;;;;0.03;0.03;;;;;;;;;;5118674;28;20426;-67
2021/08/11 08:16:50;;;;;;;0.00;0.00;;;;;;;;;;5105455;28;20389;-68
2021/08/11 08:19:17;;;;;;;0.00;0.00;;;;;;;;;;5105339;28;20317;-69
2021/08/11 08:21:43;;;;;;;1.02;0.55;;;;;;;;;;5111211;28;20503;-68
2021/08/11 08:24:11;;;;;;;0.00;0.00;;;;;;;;;;5115458;28;20386;-69
2021/08/11 08:26:37;;;;;;;0.00;0.00;;;;;;;;;;5113075;28;20551;-68
2021/08/11 08:29:04;;;;;;;0.08;0.08;;;;;;;;;;5109564;28;20455;-70
2021/08/11 08:31:30;;;;;;;0.00;0.00;;;;;;;;;;5107602;28;20206;-69
2021/08/11 08:33:57;;;;;;;0.00;0.00;;;;;;;;;;5105665;28;20244;-69
2021/08/11 08:36:23;;;;;;;0.10;0.10;;;;;;;;;;5108492;28;20199;-69
2021/08/11 08:38:50;;;;;;;0.00;0.00;;;;;;;;;;5102768;28;20253;-64
2021/08/11 08:41:18;;;;;;;0.05;0.05;;;;;;;;;;5115214;28;20366;-66
2021/08/11 08:43:44;;;;;;;0.00;0.00;;;;;;;;;;5118730;28;20239;-63
2021/08/11 08:46:11;;;;;;;0.00;0.00;;;;;;;;;;5118250;28;20557;-64
2021/08/11 08:48:38;;;;;;;0.00;0.00;;;;;;;;;;5120340;28;20283;-65
2021/08/11 08:51:07;;;;;;;0.00;0.00;;;;;;;;;;5124261;28;20304;-64
2021/08/11 08:53:34;;;;;;;0.10;0.10;;;;;;;;;;5122321;28;20207;-63
2021/08/11 08:56:01;;;;;;;0.10;0.10;;;;;;;;;;5122151;28;20428;-64
2021/08/11 08:58:28;;;;;;;0.43;0.43;;;;;;;;;;5123105;28;20299;-63
2021/08/11 09:00:54;;;;;;;0.00;0.00;;;;;;;;;;5123231;28;20269;-64
2021/08/11 09:03:21;;;;;;;0.00;0.00;;;;;;;;;;5123218;28;20209;-65
2021/08/11 09:05:47;;;;;;;0.00;0.00;;;;;;;;;;5119864;28;20233;-64
2021/08/11 09:08:13;;;;;;;0.10;0.10;;;;;;;;;;5120465;28;20212;-64
2021/08/11 09:10:40;;;;;;;0.00;0.00;;;;;;;;;;5121625;28;20255;-64
2021/08/11 09:13:13;;;;;;;0.00;0.00;;;;;;;;;;5122602;28;20224;-65
2021/08/11 09:15:42;;;;;;;0.00;0.00;;;;;;;;;;5123139;28;21028;-64
2021/08/11 09:18:15;;;;;;;0.03;0.03;;;;;;;;;;5121575;28;20316;-63
2021/08/11 09:20:43;;;;;;;0.10;0.10;;;;;;;;;;5122883;28;20211;-65
2021/08/11 09:23:09;;;;;;;0.05;0.05;;;;;;;;;;5121752;28;20223;-64
2021/08/11 09:25:36;;;;;;;0.00;0.00;;;;;;;;;;5123660;28;20217;-70
2021/08/11 09:28:03;;;;;;;0.10;0.10;;;;;;;;;;5119384;28;20218;-65
2021/08/11 09:30:32;;;;;;;0.00;0.00;;;;;;;;;;5119475;28;20249;-64
2021/08/11 09:33:00;;;;;;;0.00;0.00;;;;;;;;;;5122576;28;20233;-64
2021/08/11 09:35:27;;;;;;;0.00;0.00;;;;;;;;;;5122194;28;20203;-64
2021/08/11 09:37:54;;;;;;;0.30;0.30;;;;;;;;;;5121269;27;20230;-64
2021/08/11 09:40:22;;;;;;;0.00;0.00;;;;;;;;;;5121774;27;20508;-65
2021/08/11 09:42:48;;;;;;;0.00;0.00;;;;;;;;;;5123066;28;20241;-67
2021/08/11 09:45:15;;;;;;;0.00;0.00;;;;;;;;;;5120479;28;20325;-63
2021/08/11 09:48:03;;;;;;;0.00;0.00;;;;;;;;;;5122146;28;20552;-66
2021/08/11 09:50:47;;;;;;;0.10;0.10;;;;;;;;;;5101029;28;20210;-63
2021/08/11 09:53:14;;;;;;;0.00;0.00;;;;;;;;;;5120626;28;20196;-63
2021/08/11 09:55:54;;;;;;;0.10;0.10;;;;;;;;;;5121203;28;21023;-64
2021/08/11 09:58:20;;;;;;;0.00;0.00;;;;;;;;;;5121692;28;20224;-65
2021/08/11 10:00:46;;;;;;;0.10;0.10;;;;;;;;;;5119995;28;20216;-64
2021/08/11 10:03:13;;;;;;;0.00;0.00;;;;;;;;;;5121174;28;20204;-65
2021/08/11 10:05:39;;;;;;;0.35;0.35;;;;;;;;;;5121589;28;20252;-65
2021/08/11 10:08:07;;;;;;;0.00;0.00;;;;;;;;;;5121927;28;20223;-65
2021/08/11 10:10:44;;;;;;;0.10;0.10;;;;;;;;;;5121532;28;20205;-64
2021/08/11 10:13:10;;;;;;;0.10;0.10;;;;;;;;;;5121468;28;20203;-65
2021/08/11 10:15:36;;;;;;;0.05;0.05;;;;;;;;;;5121283;28;20209;-65
2021/08/11 10:18:03;;;;;;;0.03;0.03;;;;;;;;;;5121139;28;20249;-66
2021/08/11 10:20:29;;;;;;;0.00;0.00;;;;;;;;;;5120996;28;20224;-65
2021/08/11 10:22:56;;;;;;;0.00;0.00;;;;;;;;;;5121079;28;20213;-67
2021/08/11 10:25:24;;;;;;;0.00;0.00;;;;;;;;;;5122222;28;20350;-64
2021/08/11 10:27:50;;;;;;;0.10;0.10;;;;;;;;;;5121453;28;20212;-65
2021/08/11 10:30:17;;;;;;;0.20;0.20;;;;;;;;;;5121915;28;20288;-65
2021/08/11 10:32:43;;;;;;;0.00;0.00;;;;;;;;;;5121660;28;20217;-65
2021/08/11 10:35:10;;;;;;;0.52;0.52;;;;;;;;;;5121694;28;20201;-64
2021/08/11 10:37:36;;;;;;;0.10;0.10;;;;;;;;;;5119005;28;20210;-67
2021/08/11 10:40:02;;;;;;;0.00;0.00;;;;;;;;;;5122181;28;20267;-64
2021/08/11 10:42:30;;;;;;;0.10;0.10;;;;;;;;;;5121460;28;20201;-64
2021/08/11 10:44:57;;;;;;;0.00;0.00;;;;;;;;;;5121199;27;20221;-65
2021/08/11 10:47:28;;;;;;;0.00;0.00;;;;;;;;;;5121007;28;20262;-66
2021/08/11 10:49:56;;;;;;;0.00;0.00;;;;;;;;;;5119718;28;20210;-64
2021/08/11 10:52:22;;;;;;;0.40;0.40;;;;;;;;;;5120425;28;20259;-64
2021/08/11 10:54:49;;;;;;;0.00;0.00;;;;;;;;;;5120786;28;20381;-67
2021/08/11 10:57:41;;;;;;;0.00;0.00;;;;;;;;;;5121475;28;20288;-68
2021/08/11 11:00:10;;;;;;;0.00;0.00;;;;;;;;;;5121607;28;20202;-64
2021/08/11 11:02:48;;;;;;;0.00;0.00;;;;;;;;;;5120083;28;20217;-66
2021/08/11 11:05:36;;;;;;;0.00;0.00;;;;;;;;;;5120994;28;20540;-68
2021/08/11 11:08:24;;;;;;;0.00;0.00;;;;;;;;;;5118442;28;20226;-67
2021/08/11 11:10:50;;;;;;;0.10;0.10;;;;;;;;;;5118962;28;20202;-69
2021/08/11 11:13:39;;;;;;;0.17;0.17;;;;;;;;;;5120035;28;20214;-72
2021/08/11 11:16:08;;;;;;;0.10;0.10;;;;;;;;;;5120300;28;20210;-64
2021/08/11 11:18:37;;;;;;;0.17;0.17;;;;;;;;;;5120292;28;20234;-66
2021/08/11 11:21:19;;;;;;;0.10;0.10;;;;;;;;;;5120873;28;20525;-63
2021/08/11 11:23:45;;;;;;;0.10;0.10;;;;;;;;;;5120996;28;20270;-65
2021/08/11 11:26:13;;;;;;;0.10;0.10;;;;;;;;;;5119489;28;20251;-70
2021/08/11 11:28:53;;;;;;;0.00;0.00;;;;;;;;;;5121345;28;20240;-70
2021/08/11 11:31:38;;;;;;;0.05;0.05;;;;;;;;;;5120563;28;20202;-70
2021/08/11 11:34:26;;;;;;;0.00;0.00;;;;;;;;;;5121136;28;20219;-68
2021/08/11 11:37:13;;;;;;;0.20;0.20;;;;;;;;;;5119262;28;20524;-64
2021/08/11 11:39:55;;;;;;;0.00;0.00;;;;;;;;;;5114493;28;20218;-71
2021/08/11 11:42:25;;;;;;;0.08;0.08;;;;;;;;;;5113208;28;20206;-70
2021/08/11 11:44:53;;;;;;;0.45;0.45;;;;;;;;;;5106934;28;20211;-68
2021/08/11 11:47:41;;;;;;;0.10;0.10;;;;;;;;;;5114108;28;20237;-65
2021/08/11 11:50:28;;;;;;;0.15;0.15;;;;;;;;;;5103272;28;20209;-65
2021/08/11 11:52:55;;;;;;;0.00;0.00;;;;;;;;;;5103752;28;20244;-65
2021/08/11 11:55:27;;;;;;;0.00;0.00;;;;;;;;;;5111266;28;20198;-65
2021/08/11 11:57:54;;;;;;;0.00;0.00;;;;;;;;;;5108419;28;20527;-66
2021/08/11 12:00:20;;;;;;;0.00;0.00;;;;;;;;;;5109969;28;20543;-66
2021/08/11 12:02:51;;;;;;;0.00;0.00;;;;;;;;;;5123831;28;20194;-66
2021/08/11 12:05:18;;;;;;;0.00;0.00;;;;;;;;;;5112376;28;20569;-65
2021/08/11 12:07:44;;;;;;;0.00;0.00;;;;;;;;;;5119503;28;20213;-65
2021/08/11 12:10:10;;;;;;;0.00;0.00;;;;;;;;;;5116880;28;20202;-65
2021/08/11 12:12:37;;;;;;;0.10;0.10;;;;;;;;;;5103321;28;20245;-65
2021/08/11 12:15:16;;;;;;;0.00;0.00;;;;;;;;;;5110511;28;20256;-65
2021/08/11 12:17:42;;;;;;;0.00;0.00;;;;;;;;;;5109634;28;20228;-66
2021/08/11 12:20:23;;;;;;;0.00;0.00;;;;;;;;;;5123850;28;20243;-65
2021/08/11 12:22:51;;;;;;;0.00;0.00;;;;;;;;;;5123413;28;20210;-65
2021/08/11 12:25:20;;;;;;;0.00;0.00;;;;;;;;;;5124051;28;20206;-65
2021/08/11 12:28:01;;;;;;;0.10;0.10;;;;;;;;;;5123372;28;20493;-65
2021/08/11 12:30:28;;;;;;;0.00;0.00;;;;;;;;;;5111073;28;20260;-65
2021/08/11 12:32:54;;;;;;;0.00;0.00;;;;;;;;;;5121536;28;20554;-64
2021/08/11 12:35:20;;;;;;;0.00;0.00;;;;;;;;;;5123960;28;20356;-65
2021/08/11 12:37:47;;;;;;;0.10;0.10;;;;;;;;;;5109282;28;20203;-66
2021/08/11 12:40:34;;;;;;;0.00;0.00;;;;;;;;;;5115212;28;20540;-65
2021/08/11 12:43:02;;;;;;;0.00;0.00;;;;;;;;;;5112277;28;20195;-66
2021/08/11 12:45:44;;;;;;;0.00;0.00;;;;;;;;;;5113073;28;20385;-65
2021/08/11 12:48:24;;;;;;;0.00;0.00;;;;;;;;;;5105496;28;20194;-65
2021/08/11 12:50:50;;;;;;;0.00;0.00;;;;;;;;;;5114915;28;20243;-65
2021/08/11 12:53:22;;;;;;;0.00;0.00;;;;;;;;;;5123499;28;20370;-66
2021/08/11 12:55:48;;;;;;;0.00;0.00;;;;;;;;;;5123339;28;20224;-65
2021/08/11 12:58:16;;;;;;;0.00;0.00;;;;;;;;;;5123204;28;20251;-65
2021/08/11 13:00:43;;;;;;;0.00;0.00;;;;;;;;;;5123437;28;20225;-65
2021/08/11 13:03:11;;;;;;;0.00;0.00;;;;;;;;;;5119680;28;20206;-67
2021/08/11 13:05:50;;;;;;;0.00;0.00;;;;;;;;;;5118493;28;20307;-65
2021/08/11 13:08:17;;;;;;;0.05;0.05;;;;;;;;;;5118603;28;20501;-69
2021/08/11 13:10:53;;;;;;;0.57;0.57;;;;;;;;;;5118652;28;20211;-66
2021/08/11 13:13:25;;;;;;;0.00;0.00;;;;;;;;;;5119230;28;20223;-65
2021/08/11 13:16:06;;;;;;;0.00;0.00;;;;;;;;;;5115798;28;20204;-65
2021/08/11 13:18:32;;;;;;;0.00;0.00;;;;;;;;;;5117108;28;20318;-64
2021/08/11 13:20:59;;;;;;;0.00;0.00;;;;;;;;;;5117350;28;20215;-65
2021/08/11 13:23:25;;;;;;;0.00;0.00;;;;;;;;;;5118142;28;20282;-65
2021/08/11 13:25:51;;;;;;;0.00;0.00;;;;;;;;;;5118885;28;20221;-65
2021/08/11 13:28:18;;;;;;;0.00;0.00;;;;;;;;;;5117413;28;20217;-64
2021/08/11 13:30:46;;;;;;;1.50;1.50;;;;;;;;;;5119096;28;20259;-67
2021/08/11 13:33:12;;;;;;;0.03;0.03;;;;;;;;;;5116164;28;20226;-66
2021/08/11 13:35:38;;;;;;;0.00;0.00;;;;;;;;;;5122578;28;20206;-65
2021/08/11 13:38:05;;;;;;;0.00;0.00;;;;;;;;;;5107313;27;20207;-66
2021/08/11 13:40:32;;;;;;;0.00;0.00;;;;;;;;;;5114217;28;20305;-65
2021/08/11 13:42:58;;;;;;;0.00;0.00;;;;;;;;;;5111965;27;20243;-64
2021/08/11 13:45:24;;;;;;;0.00;0.00;;;;;;;;;;5106155;28;20203;-64
2021/08/11 13:47:52;;;;;;;0.10;0.10;;;;;;;;;;5116126;28;20272;-63
2021/08/11 13:50:18;;;;;;;0.00;0.00;;;;;;;;;;5107035;28;20206;-63
2021/08/11 13:52:45;;;;;;;0.00;0.00;;;;;;;;;;5122570;27;20261;-64
2021/08/11 13:55:12;;;;;;;0.10;0.10;;;;;;;;;;5111829;28;20299;-64
2021/08/11 13:57:38;;;;;;;0.00;0.00;;;;;;;;;;5107496;28;20251;-64
2021/08/11 14:00:05;;;;;;;0.05;0.05;;;;;;;;;;5106671;28;20214;-63
2021/08/11 14:02:32;;;;;;;0.00;0.00;;;;;;;;;;5113649;28;20240;-63
2021/08/11 14:04:59;;;;;;;2.78;2.58;;;;;;;;;;5105126;28;20210;-63
2021/08/11 14:07:26;;;;;;;0.00;0.00;;;;;;;;;;5108886;28;20234;-65
2021/08/11 14:09:53;;;;;;;0.08;0.08;;;;;;;;;;5115583;28;20199;-64
2021/08/11 14:12:19;;;;;;;0.10;0.10;;;;;;;;;;5108843;28;20385;-63
2021/08/11 14:14:45;;;;;;;0.10;0.10;;;;;;;;;;5112489;28;20223;-64
2021/08/11 14:17:12;;;;;;;0.00;0.00;;;;;;;;;;5107999;28;20455;-63
2021/08/11 14:19:38;;;;;;;0.00;0.00;;;;;;;;;;5109711;27;20230;-63
2021/08/11 14:22:06;;;;;;;0.00;0.00;;;;;;;;;;5105064;28;20558;-64
2021/08/11 14:24:32;;;;;;;0.00;0.00;;;;;;;;;;5106385;28;20211;-66
2021/08/11 14:26:59;;;;;;;0.00;0.00;;;;;;;;;;5116005;28;20248;-65
2021/08/11 14:29:25;;;;;;;0.00;0.00;;;;;;;;;;5115678;28;20213;-65
2021/08/11 14:31:51;;;;;;;0.00;0.00;;;;;;;;;;5104834;28;20199;-65
2021/08/11 14:34:17;;;;;;;0.10;0.10;;;;;;;;;;5116173;28;20206;-64
2021/08/11 14:36:44;;;;;;;0.00;0.00;;;;;;;;;;5105102;28;20266;-65
2021/08/11 14:39:11;;;;;;;0.00;0.00;;;;;;;;;;5119244;28;20206;-65
2021/08/11 14:41:38;;;;;;;0.00;0.00;;;;;;;;;;5104972;28;20404;-65
2021/08/11 14:44:04;;;;;;;0.00;0.00;;;;;;;;;;5106520;28;20222;-64
2021/08/11 14:46:30;;;;;;;0.00;0.00;;;;;;;;;;5104624;28;20214;-66
2021/08/11 14:48:56;;;;;;;0.00;0.00;;;;;;;;;;5117326;28;20257;-64
2021/08/11 14:51:23;;;;;;;0.00;0.00;;;;;;;;;;5114265;28;20229;-65